Time;durP1;ratioP1;P1;durP2;ratioP2;P2;SDS_P1;SDS_P2;PMS_P1;PMS_P2;Temp;Humidity;BMP_temperature;BMP_pressure;BME280_temperature;BME280_humidity;BME280_pressure;Samples;Min_cycle;Max_cycle;Signal;HPM_P1;HPM_P2
2022/11/15 00:01:49;;;;;;;50.77;31.07;;;;;;;6.29;100.00;101241.88;4990419;28;20202;-71
2022/11/15 00:04:33;;;;;;;52.03;31.00;;;;;;;6.30;100.00;101232.53;4992303;28;20211;-73
2022/11/15 00:07:17;;;;;;;47.33;28.87;;;;;;;6.25;100.00;101228.94;4992194;28;20234;-73
2022/11/15 00:10:01;;;;;;;51.63;29.77;;;;;;;6.26;100.00;101230.69;4992284;28;20273;-70
2022/11/15 00:12:45;;;;;;;49.90;30.50;;;;;;;6.19;100.00;101227.03;4990637;28;20230;-72
2022/11/15 00:15:29;;;;;;;50.07;30.03;;;;;;;6.17;100.00;101232.84;4991700;28;20584;-70
2022/11/15 00:18:14;;;;;;;49.90;30.17;;;;;;;6.15;100.00;101227.69;4993310;28;20222;-70
2022/11/15 00:21:07;;;;;;;50.90;31.67;;;;;;;6.11;100.00;101220.72;4991794;28;20238;-70
2022/11/15 00:23:51;;;;;;;50.53;31.57;;;;;;;6.08;100.00;101233.31;4992830;28;20279;-72
2022/11/15 00:26:35;;;;;;;51.73;30.70;;;;;;;6.08;100.00;101225.69;4991408;28;20211;-71
2022/11/15 00:29:19;;;;;;;55.43;32.43;;;;;;;6.08;100.00;101233.31;4991859;28;20227;-71
2022/11/15 00:32:03;;;;;;;50.73;31.47;;;;;;;6.07;100.00;101238.31;4992756;28;20211;-71
2022/11/15 00:34:47;;;;;;;51.30;31.27;;;;;;;6.09;100.00;101235.06;4991546;28;20198;-70
2022/11/15 00:37:31;;;;;;;49.53;29.83;;;;;;;6.09;100.00;101235.06;4988548;28;20207;-70
2022/11/15 00:40:15;;;;;;;48.57;30.27;;;;;;;6.12;100.00;101244.50;4987120;28;20218;-69
2022/11/15 00:42:59;;;;;;;49.57;29.37;;;;;;;6.17;100.00;101243.03;4986726;28;20282;-71
2022/11/15 00:45:43;;;;;;;45.50;29.03;;;;;;;6.18;100.00;101229.50;4990849;28;20215;-70
2022/11/15 00:48:27;;;;;;;47.83;30.27;;;;;;;6.22;100.00;101239.00;4992695;28;20237;-70
2022/11/15 00:51:11;;;;;;;46.10;29.40;;;;;;;6.20;100.00;101244.00;4985906;28;20278;-71
2022/11/15 00:53:55;;;;;;;45.30;29.27;;;;;;;6.23;100.00;101243.28;4990563;28;20203;-71
2022/11/15 00:56:39;;;;;;;45.03;28.47;;;;;;;6.26;100.00;101234.09;4987481;28;20212;-72
2022/11/15 00:59:22;;;;;;;48.00;28.97;;;;;;;6.29;100.00;101236.78;4985719;28;20706;-72
2022/11/15 01:02:06;;;;;;;42.03;27.73;;;;;;;6.29;100.00;101239.31;4984389;28;20257;-70
2022/11/15 01:04:50;;;;;;;47.20;29.33;;;;;;;6.28;100.00;101234.16;4986443;28;20642;-72
2022/11/15 01:07:34;;;;;;;45.73;29.13;;;;;;;6.25;100.00;101234.03;4988098;28;20203;-71
2022/11/15 01:10:19;;;;;;;45.93;30.07;;;;;;;6.21;100.00;101230.50;4985405;28;20234;-70
2022/11/15 01:13:03;;;;;;;46.93;29.20;;;;;;;6.18;100.00;101226.97;4988699;28;20234;-72
2022/11/15 01:15:47;;;;;;;47.03;29.23;;;;;;;6.16;100.00;101233.63;4986234;28;20266;-72
2022/11/15 01:18:31;;;;;;;42.57;28.43;;;;;;;6.14;100.00;101228.50;4985926;28;20206;-70
2022/11/15 01:21:17;;;;;;;47.20;29.20;;;;;;;6.10;100.00;101234.25;4985132;28;20277;-70
2022/11/15 01:24:02;;;;;;;43.77;27.47;;;;;;;6.09;100.00;101229.09;4984456;28;20250;-71
2022/11/15 01:26:46;;;;;;;40.90;26.23;;;;;;;6.02;100.00;101222.88;4989044;28;20221;-70
2022/11/15 01:29:29;;;;;;;42.00;27.20;;;;;;;5.99;100.00;101219.34;4990553;28;20234;-71
2022/11/15 01:32:14;;;;;;;44.73;27.20;;;;;;;5.93;100.00;101217.41;4983820;28;20310;-72
2022/11/15 01:34:57;;;;;;;45.37;27.97;;;;;;;5.91;100.00;101207.97;4987615;28;20374;-72
2022/11/15 01:37:42;;;;;;;40.80;26.07;;;;;;;5.84;100.00;101206.84;4985389;28;20755;-70
2022/11/15 01:40:25;;;;;;;43.47;27.13;;;;;;;5.82;100.00;101202.50;4984882;28;20226;-69
2022/11/15 01:43:21;;;;;;;43.40;27.67;;;;;;;5.77;100.00;101207.34;4980882;28;20198;-70
2022/11/15 01:46:17;;;;;;;43.93;26.80;;;;;;;5.72;100.00;101196.13;4988082;28;20199;-70
2022/11/15 01:49:05;;;;;;;39.40;25.93;;;;;;;5.66;100.00;101203.44;4989946;28;20207;-69
2022/11/15 01:51:51;;;;;;;41.00;25.87;;;;;;;5.58;99.63;101199.69;4989045;28;20597;-72
2022/11/15 01:54:35;;;;;;;37.43;24.77;;;;;;;5.50;99.67;101193.41;4986566;28;20687;-69
2022/11/15 01:57:19;;;;;;;39.03;25.53;;;;;;;5.42;99.32;101197.28;4987952;28;20622;-73
2022/11/15 02:00:05;;;;;;;38.83;24.57;;;;;;;5.39;98.76;101197.13;4986638;28;20226;-71
2022/11/15 02:02:50;;;;;;;36.43;23.97;;;;;;;5.33;99.15;101196.84;4989110;28;20605;-71
2022/11/15 02:05:36;;;;;;;37.50;23.90;;;;;;;5.29;98.74;101189.91;4987071;28;20210;-71
2022/11/15 02:08:20;;;;;;;40.20;25.17;;;;;;;5.24;99.16;101182.88;4990362;28;20210;-72
2022/11/15 02:11:08;;;;;;;39.97;25.13;;;;;;;5.17;99.10;101196.97;4990714;28;20319;-71
2022/11/15 02:13:53;;;;;;;44.20;26.87;;;;;;;5.21;99.19;101196.28;4988318;28;21077;-70
2022/11/15 02:17:07;;;;;;;41.57;25.90;;;;;;;5.17;99.07;101183.41;4986267;28;20695;-70
2022/11/15 02:20:10;;;;;;;38.17;25.10;;;;;;;5.21;99.55;101191.22;4991307;28;20954;-71
2022/11/15 02:23:26;;;;;;;41.00;27.57;;;;;;;5.26;100.00;101183.81;4989428;28;20211;-72
2022/11/15 02:26:29;;;;;;;45.07;26.40;;;;;;;5.24;100.00;101180.31;4990382;28;20212;-71
2022/11/15 02:29:28;;;;;;;45.07;27.60;;;;;;;5.22;100.00;101179.41;4988213;28;20265;-73
2022/11/15 02:32:26;;;;;;;43.17;26.10;;;;;;;5.10;100.00;101174.63;4990009;28;20226;-71
2022/11/15 02:35:25;;;;;;;40.37;25.37;;;;;;;5.00;100.00;101174.13;4990600;28;20183;-72
2022/11/15 02:38:22;;;;;;;39.57;25.10;;;;;;;4.93;100.00;101167.91;4990665;28;20194;-72
2022/11/15 02:41:14;;;;;;;37.33;24.43;;;;;;;4.87;100.00;101166.75;4990573;28;20323;-72
2022/11/15 02:44:15;;;;;;;39.87;24.80;;;;;;;4.84;100.00;101164.94;4989606;28;20217;-73
2022/11/15 02:47:13;;;;;;;36.60;22.53;;;;;;;4.75;99.94;101166.19;4989846;28;20683;-71
2022/11/15 02:50:02;;;;;;;37.70;24.50;;;;;;;4.74;99.25;101174.59;4990132;28;20278;-71
2022/11/15 02:52:48;;;;;;;35.93;22.97;;;;;;;4.72;99.22;101169.44;4987387;28;20210;-72
2022/11/15 02:55:40;;;;;;;37.23;22.13;;;;;;;4.64;98.87;101175.81;4989424;28;20218;-71
2022/11/15 02:58:27;;;;;;;38.33;23.03;;;;;;;4.56;98.74;101177.09;4987171;28;20203;-71
2022/11/15 03:01:28;;;;;;;37.07;23.20;;;;;;;4.50;98.47;101171.75;4990476;28;20314;-73
2022/11/15 03:04:41;;;;;;;32.93;22.37;;;;;;;4.50;98.13;101170.84;5001995;28;20191;-72
2022/11/15 03:07:32;;;;;;;32.67;21.60;;;;;;;4.42;98.11;101162.88;4988710;28;20679;-72
2022/11/15 03:10:43;;;;;;;36.10;22.07;;;;;;;4.44;98.30;101166.38;4989686;28;20282;-73
2022/11/15 03:13:30;;;;;;;34.53;22.10;;;;;;;4.40;98.69;101173.75;4987399;28;20580;-71
2022/11/15 03:16:23;;;;;;;35.60;22.90;;;;;;;4.37;98.80;101166.88;4990210;28;20227;-72
2022/11/15 03:19:28;;;;;;;32.50;21.03;;;;;;;4.44;99.20;101165.50;4989803;28;20222;-71
2022/11/15 03:22:17;;;;;;;37.07;23.53;;;;;;;4.52;99.95;101159.16;4991664;28;20275;-72
2022/11/15 03:25:06;;;;;;;38.07;24.07;;;;;;;4.58;100.00;101157.78;4994249;28;20218;-71
2022/11/15 03:27:53;;;;;;;33.70;22.63;;;;;;;4.61;100.00;101157.91;4993856;28;20242;-71
2022/11/15 03:30:39;;;;;;;35.63;23.53;;;;;;;4.67;100.00;101157.34;4992638;28;20307;-73
2022/11/15 03:33:24;;;;;;;39.20;23.80;;;;;;;4.69;100.00;101159.13;4989367;28;20261;-73
2022/11/15 03:36:08;;;;;;;35.30;22.13;;;;;;;4.70;100.00;101154.94;4988924;28;20237;-72
2022/11/15 03:38:59;;;;;;;36.70;24.10;;;;;;;4.73;100.00;101157.63;4992911;28;20203;-71
2022/11/15 03:42:03;;;;;;;36.63;23.80;;;;;;;4.76;100.00;101150.16;4993485;28;20202;-72
2022/11/15 03:45:00;;;;;;;37.90;22.53;;;;;;;4.77;100.00;101162.91;4993975;28;20234;-73
2022/11/15 03:47:54;;;;;;;36.87;23.33;;;;;;;4.77;100.00;101159.50;4992428;28;20259;-73
2022/11/15 03:50:38;;;;;;;37.53;23.03;;;;;;;4.73;100.00;101153.41;4990683;28;20244;-73
2022/11/15 03:53:22;;;;;;;40.50;23.47;;;;;;;4.79;100.00;101155.38;4989893;28;20203;-72
2022/11/15 03:56:06;;;;;;;37.83;22.53;;;;;;;4.79;100.00;101151.16;4989307;28;20209;-73
2022/11/15 03:58:50;;;;;;;34.63;22.57;;;;;;;4.84;100.00;101153.94;4993016;28;20625;-72
2022/11/15 04:01:34;;;;;;;37.27;23.47;;;;;;;4.85;100.00;101148.06;4990310;28;20238;-72
2022/11/15 04:04:18;;;;;;;37.53;23.77;;;;;;;4.85;100.00;101150.59;4994847;28;20301;-73
2022/11/15 04:07:02;;;;;;;34.77;22.97;;;;;;;4.82;100.00;101148.78;4991694;28;20217;-72
2022/11/15 04:10:01;;;;;;;35.00;22.87;;;;;;;4.80;100.00;101152.03;4989112;28;20596;-72
2022/11/15 04:12:47;;;;;;;33.73;21.67;;;;;;;4.82;100.00;101147.91;4987142;28;20680;-73
2022/11/15 04:15:31;;;;;;;36.73;22.53;;;;;;;4.84;100.00;101147.16;4987106;28;20217;-72
2022/11/15 04:18:16;;;;;;;34.57;22.60;;;;;;;4.89;100.00;101144.88;4986186;28;20195;-72
2022/11/15 04:26:49;;;;;;;34.57;21.47;;;;;;;5.07;100.00;101130.50;4989198;28;20203;-72
2022/11/15 04:29:34;;;;;;;34.80;22.37;;;;;;;5.04;100.00;101131.22;4987354;28;20270;-72
2022/11/15 04:32:18;;;;;;;34.80;21.73;;;;;;;5.07;100.00;101136.41;4984097;28;20211;-72
2022/11/15 04:35:03;;;;;;;32.70;20.97;;;;;;;5.08;100.00;101138.19;4986858;28;20195;-73
2022/11/15 04:37:47;;;;;;;31.23;21.17;;;;;;;5.12;100.00;101139.19;4983308;28;20203;-74
2022/11/15 04:40:31;;;;;;;35.93;21.00;;;;;;;5.18;100.00;101149.59;4985029;28;20280;-73
2022/11/15 04:43:15;;;;;;;31.83;21.10;;;;;;;5.26;100.00;101146.63;4985068;28;20206;-73
2022/11/15 04:45:59;;;;;;;34.97;21.87;;;;;;;5.35;100.00;101149.53;4990029;28;20199;-73
2022/11/15 04:48:43;;;;;;;34.23;22.03;;;;;;;5.46;100.00;101150.91;4987744;28;20571;-73
2022/11/15 04:51:27;;;;;;;34.97;22.83;;;;;;;5.57;100.00;101157.31;4986825;28;20687;-72
2022/11/15 04:54:11;;;;;;;34.37;22.03;;;;;;;5.72;100.00;101154.59;4986369;28;20203;-70
2022/11/15 04:56:55;;;;;;;36.53;23.47;;;;;;;5.80;100.00;101151.59;4985052;28;20196;-71
2022/11/15 04:59:38;;;;;;;40.90;23.80;;;;;;;5.87;100.00;101155.28;4982574;28;20228;-73
2022/11/15 05:02:22;;;;;;;33.90;21.93;;;;;;;5.88;100.00;101152.81;4987005;28;20194;-73
2022/11/15 05:05:07;;;;;;;38.00;22.87;;;;;;;5.93;100.00;101146.25;4983257;28;20206;-73
2022/11/15 05:07:51;;;;;;;38.23;23.90;;;;;;;5.99;100.00;101145.66;4989960;28;20223;-72
2022/11/15 05:10:35;;;;;;;35.97;22.33;;;;;;;6.03;100.00;101143.28;4986909;28;20235;-72
2022/11/15 05:13:19;;;;;;;35.60;23.40;;;;;;;6.06;100.00;101138.34;4986146;28;20690;-72
2022/11/15 05:16:03;;;;;;;36.67;23.93;;;;;;;6.10;100.00;101142.75;4986969;28;20680;-72
2022/11/15 05:18:51;;;;;;;38.37;24.87;;;;;;;6.14;100.00;101143.75;4983426;28;20291;-72
2022/11/15 05:21:35;;;;;;;37.63;23.90;;;;;;;6.13;100.00;101136.94;4981860;28;20203;-72
2022/11/15 05:24:19;;;;;;;38.70;25.17;;;;;;;6.10;100.00;101135.13;4989579;28;20735;-73
2022/11/15 05:27:03;;;;;;;38.80;25.13;;;;;;;6.08;100.00;101135.88;4990358;28;20287;-72
2022/11/15 05:29:47;;;;;;;38.80;25.40;;;;;;;6.04;100.00;101129.75;4988395;28;20256;-72
2022/11/15 05:32:31;;;;;;;35.57;23.40;;;;;;;6.00;100.00;101133.00;4986232;28;20206;-71
2022/11/15 05:35:33;;;;;;;36.70;23.80;;;;;;;5.99;100.00;101132.94;4987270;28;20194;-74
2022/11/15 05:38:17;;;;;;;33.50;23.23;;;;;;;5.98;100.00;101126.13;4985380;28;20190;-73
2022/11/15 05:41:02;;;;;;;35.57;23.37;;;;;;;5.96;100.00;101125.19;4987770;28;20593;-72
2022/11/15 05:43:49;;;;;;;40.63;24.37;;;;;;;5.95;100.00;101123.44;4980495;28;20207;-74
2022/11/15 05:46:35;;;;;;;38.27;25.07;;;;;;;5.94;100.00;101132.72;4987492;28;20211;-73
2022/11/15 05:49:23;;;;;;;36.47;23.07;;;;;;;5.94;100.00;101127.66;4986077;28;20635;-72
2022/11/15 05:52:13;;;;;;;35.60;22.93;;;;;;;5.93;100.00;101128.47;4985094;28;20266;-73
2022/11/15 05:54:58;;;;;;;37.53;23.67;;;;;;;5.94;100.00;101126.81;4990025;28;20200;-73
2022/11/15 05:57:41;;;;;;;30.47;21.10;;;;;;;5.97;100.00;101132.88;4984563;28;20716;-73
2022/11/15 06:00:25;;;;;;;33.60;23.07;;;;;;;5.99;100.00;101132.94;4984630;28;20782;-73
2022/11/15 06:03:10;;;;;;;35.07;22.73;;;;;;;6.01;100.00;101134.75;4983646;28;20198;-71
2022/11/15 06:05:54;;;;;;;31.97;22.17;;;;;;;6.03;100.00;101143.28;4981917;28;20239;-72
2022/11/15 06:08:38;;;;;;;32.30;22.47;;;;;;;6.04;100.00;101141.63;4987156;28;20218;-72
2022/11/15 06:11:22;;;;;;;35.60;22.17;;;;;;;6.06;100.00;101142.53;4985450;28;20231;-72
2022/11/15 06:14:06;;;;;;;33.40;21.37;;;;;;;6.07;100.00;101147.69;4982025;28;20226;-72
2022/11/15 06:16:50;;;;;;;34.33;21.60;;;;;;;6.11;100.00;101146.13;4985853;28;20227;-72
2022/11/15 06:19:34;;;;;;;36.23;22.63;;;;;;;6.10;100.00;101142.75;4984921;28;20217;-72
2022/11/15 06:22:18;;;;;;;36.23;22.57;;;;;;;6.11;100.00;101147.03;4984385;28;20211;-71
2022/11/15 06:25:02;;;;;;;35.97;23.03;;;;;;;6.14;100.00;101156.44;4983911;28;20266;-73
2022/11/15 06:27:52;;;;;;;36.80;22.50;;;;;;;6.17;100.00;101161.66;4988300;28;20219;-72
2022/11/15 06:30:35;;;;;;;31.43;21.47;;;;;;;6.20;100.00;101159.22;4986488;28;20247;-74
2022/11/15 06:33:19;;;;;;;34.77;22.97;;;;;;;6.22;100.00;101162.72;4984011;28;20604;-75
2022/11/15 06:36:09;;;;;;;35.37;22.37;;;;;;;6.24;100.00;101161.97;4987686;28;20183;-74
2022/11/15 06:38:54;;;;;;;30.37;21.40;;;;;;;6.26;100.00;101173.06;4985113;28;20680;-74
2022/11/15 06:41:37;;;;;;;35.33;22.50;;;;;;;6.28;100.00;101163.84;4986038;28;20203;-73
2022/11/15 06:44:21;;;;;;;33.43;22.07;;;;;;;6.31;100.00;101173.28;4987694;28;20230;-72
2022/11/15 06:47:05;;;;;;;32.60;21.80;;;;;;;6.34;100.00;101173.38;4994904;28;20195;-73
2022/11/15 06:49:49;;;;;;;30.77;21.67;;;;;;;6.37;100.00;101170.97;4988011;28;20660;-71
2022/11/15 06:52:33;;;;;;;32.97;22.97;;;;;;;6.39;100.00;101175.31;4985932;28;20262;-73
2022/11/15 06:55:18;;;;;;;34.97;22.03;;;;;;;6.45;100.00;101174.72;4987483;28;20206;-72
2022/11/15 06:58:01;;;;;;;34.40;21.87;;;;;;;6.43;100.00;101166.13;4990106;28;20191;-73
2022/11/15 07:00:45;;;;;;;33.33;21.40;;;;;;;6.47;100.00;101173.97;4989477;28;20226;-72
2022/11/15 07:03:29;;;;;;;37.27;24.00;;;;;;;6.49;100.00;101168.94;4990157;28;20194;-71
2022/11/15 07:06:14;;;;;;;30.97;22.47;;;;;;;6.52;100.00;101163.97;4990253;28;20607;-72
2022/11/15 07:08:58;;;;;;;31.03;21.10;;;;;;;6.56;100.00;101163.28;4989250;28;20238;-73
2022/11/15 07:11:42;;;;;;;34.77;23.13;;;;;;;6.58;100.00;101171.88;4990235;28;20198;-73
2022/11/15 07:14:26;;;;;;;44.63;26.97;;;;;;;6.61;100.00;101180.47;4989697;28;20203;-73
2022/11/15 07:17:10;;;;;;;37.47;25.77;;;;;;;6.62;100.00;101182.22;4990247;28;20282;-71
2022/11/15 07:19:54;;;;;;;32.67;22.57;;;;;;;6.64;100.00;101177.19;4990225;28;20242;-72
2022/11/15 07:22:39;;;;;;;33.47;21.87;;;;;;;6.67;100.00;101168.00;4990126;28;20268;-72
2022/11/15 07:25:22;;;;;;;33.67;21.97;;;;;;;6.67;100.00;101178.16;4990063;28;20194;-72
2022/11/15 07:28:07;;;;;;;32.83;22.20;;;;;;;6.70;100.00;101174.88;4989265;28;20206;-72
2022/11/15 07:30:51;;;;;;;32.47;21.83;;;;;;;6.73;100.00;101188.59;4989892;28;20594;-73
2022/11/15 07:33:35;;;;;;;29.83;20.83;;;;;;;6.76;100.00;101182.75;4989106;28;20195;-72
2022/11/15 07:36:19;;;;;;;34.47;22.67;;;;;;;6.77;100.00;101185.34;4989972;28;20743;-72
2022/11/15 07:39:03;;;;;;;30.67;21.33;;;;;;;6.81;100.00;101187.22;4989911;28;20687;-72
2022/11/15 07:41:48;;;;;;;31.83;21.57;;;;;;;6.81;100.00;101178.75;4989377;28;20303;-70
2022/11/15 07:44:32;;;;;;;31.27;21.77;;;;;;;6.87;100.00;101181.50;4988829;28;20206;-72
2022/11/15 07:47:15;;;;;;;32.77;21.97;;;;;;;6.87;100.00;101179.81;4991272;28;20202;-72
2022/11/15 07:50:00;;;;;;;33.93;21.67;;;;;;;6.92;100.00;101178.34;4989413;28;20326;-72
2022/11/15 07:52:45;;;;;;;33.07;21.77;;;;;;;6.92;100.00;101180.91;4984968;28;20727;-72
2022/11/15 07:55:29;;;;;;;36.83;22.77;;;;;;;6.94;100.00;101176.72;4988475;28;20357;-72
2022/11/15 07:58:13;;;;;;;32.03;21.90;;;;;;;7.01;100.00;101195.66;4989938;28;20250;-73
2022/11/15 08:00:57;;;;;;;31.70;20.90;;;;;;;7.03;100.00;101186.38;4989653;28;20214;-73
2022/11/15 08:03:41;;;;;;;38.53;23.43;;;;;;;7.07;100.00;101188.25;4988592;28;20207;-72
2022/11/15 08:06:25;;;;;;;34.27;22.13;;;;;;;7.07;100.00;101190.78;4986881;28;20258;-72
2022/11/15 08:09:09;;;;;;;36.00;23.73;;;;;;;7.10;100.00;101188.38;4990433;28;20638;-72
2022/11/15 08:11:53;;;;;;;35.50;23.63;;;;;;;7.14;100.00;101185.13;4991938;28;20191;-72
2022/11/15 08:14:37;;;;;;;32.60;21.23;;;;;;;7.17;100.00;101186.09;4986721;28;20200;-70
2022/11/15 08:17:21;;;;;;;38.77;23.23;;;;;;;7.20;100.00;101185.34;4991393;28;20211;-72
2022/11/15 08:20:05;;;;;;;30.60;20.63;;;;;;;7.23;100.00;101185.47;4989634;28;20230;-71
2022/11/15 08:22:50;;;;;;;35.73;22.93;;;;;;;7.25;100.00;101182.19;4992144;28;20610;-73
2022/11/15 08:25:35;;;;;;;39.87;22.03;;;;;;;7.26;100.00;101185.59;4988520;28;20194;-72
2022/11/15 08:28:19;;;;;;;30.00;19.43;;;;;;;7.28;100.00;101184.81;4989938;28;20335;-73
2022/11/15 08:31:03;;;;;;;29.63;21.23;;;;;;;7.33;100.00;101185.88;4988277;28;20223;-72
2022/11/15 08:33:47;;;;;;;30.10;21.20;;;;;;;7.39;100.00;101175.03;4984693;28;20668;-73
2022/11/15 08:36:32;;;;;;;32.53;21.23;;;;;;;7.44;100.00;101171.00;4982695;28;20218;-72
2022/11/15 08:39:16;;;;;;;27.27;20.40;;;;;;;7.51;100.00;101163.63;4992478;28;20362;-71
2022/11/15 08:42:00;;;;;;;29.37;19.83;;;;;;;7.61;99.57;101170.78;4991021;28;20842;-73
2022/11/15 08:44:44;;;;;;;28.50;19.53;;;;;;;7.70;99.28;101166.00;4988551;28;20258;-71
2022/11/15 08:47:28;;;;;;;29.17;19.37;;;;;;;7.99;99.02;101156.84;4986984;28;20223;-72
2022/11/15 08:50:13;;;;;;;28.13;18.53;;;;;;;8.39;97.79;101167.63;4985249;28;20261;-72
2022/11/15 08:52:57;;;;;;;23.87;18.03;;;;;;;8.81;95.71;101161.34;4987468;28;20731;-73
2022/11/15 08:55:41;;;;;;;24.33;16.57;;;;;;;8.72;94.76;101161.06;4982707;28;20199;-71
2022/11/15 08:58:25;;;;;;;23.37;17.23;;;;;;;8.89;94.44;101157.34;4984893;28;20254;-70
2022/11/15 09:01:18;;;;;;;22.30;16.93;;;;;;;9.19;93.90;101143.81;4985154;28;20222;-73
2022/11/15 09:04:03;;;;;;;21.47;16.50;;;;;;;9.74;92.21;101143.69;4990259;28;20221;-72
2022/11/15 09:06:48;;;;;;;21.80;16.83;;;;;;;10.17;89.68;101139.78;4988351;28;20215;-72
2022/11/15 09:09:32;;;;;;;19.63;15.77;;;;;;;10.29;88.56;101149.44;4986175;28;20234;-70
2022/11/15 09:12:16;;;;;;;20.47;15.70;;;;;;;10.43;87.82;101143.84;4985319;28;20229;-71
2022/11/15 09:15:00;;;;;;;18.73;13.90;;;;;;;12.77;81.36;101127.22;4985692;28;20202;-71
2022/11/15 09:17:44;;;;;;;14.20;11.30;;;;;;;14.36;70.97;101121.47;4985292;28;20207;-73
2022/11/15 09:20:28;;;;;;;15.83;11.80;;;;;;;15.62;66.32;101119.69;4991043;28;20581;-73
2022/11/15 09:23:12;;;;;;;13.03;10.63;;;;;;;16.40;62.05;101131.91;4984319;28;20650;-72
2022/11/15 09:26:04;;;;;;;13.17;10.93;;;;;;;16.54;61.13;101135.38;4989195;28;20211;-72
2022/11/15 09:28:48;;;;;;;13.43;11.90;;;;;;;16.71;60.44;101141.41;4987897;28;20566;-70
2022/11/15 09:31:32;;;;;;;13.00;11.70;;;;;;;16.40;60.49;101144.84;4986331;28;20202;-73
2022/11/15 09:34:16;;;;;;;13.07;11.50;;;;;;;17.09;58.61;101135.28;4985270;28;20199;-72
2022/11/15 09:37:00;;;;;;;12.80;11.50;;;;;;;15.82;61.61;101145.56;4991425;28;20708;-73
2022/11/15 09:39:44;;;;;;;14.30;11.63;;;;;;;15.71;62.75;101145.50;4989026;28;20301;-72
2022/11/15 09:42:40;;;;;;;12.70;11.40;;;;;;;16.42;59.61;101137.94;4989942;28;20680;-72
2022/11/15 09:45:43;;;;;;;16.03;12.23;;;;;;;17.29;58.10;101130.94;4985890;28;20226;-73
2022/11/15 09:48:40;;;;;;;13.03;11.30;;;;;;;17.35;57.75;101135.22;4986719;28;20274;-72
2022/11/15 09:51:34;;;;;;;12.37;11.03;;;;;;;17.33;57.15;101131.78;4986108;28;20211;-72
2022/11/15 09:54:08;;;;;;;13.80;11.47;;;;;;;16.46;59.00;101139.66;4991110;28;20271;-72
2022/11/15 09:56:41;;;;;;;13.30;11.93;;;;;;;17.22;58.25;101149.06;4991329;28;20680;-71
2022/11/15 09:59:16;;;;;;;14.30;12.47;;;;;;;14.69;65.75;101146.66;4991077;28;20202;-73
2022/11/15 10:01:49;;;;;;;15.50;12.63;;;;;;;13.87;69.01;101146.69;4983991;28;20199;-72
2022/11/15 10:04:15;;;;;;;15.50;13.33;;;;;;;14.54;68.68;101146.53;4990829;28;20270;-72
2022/11/15 10:06:47;;;;;;;16.73;13.00;;;;;;;15.07;66.66;101135.75;4994600;28;20350;-72
2022/11/15 10:09:17;;;;;;;16.07;11.97;;;;;;;16.10;62.67;101127.56;4990477;28;20192;-71
2022/11/15 10:11:42;;;;;;;15.60;12.80;;;;;;;15.64;64.14;101122.25;4991095;28;20198;-71
2022/11/15 10:14:19;;;;;;;13.90;12.07;;;;;;;16.73;62.21;101121.56;4990981;28;20183;-71
2022/11/15 10:17:02;;;;;;;13.20;11.90;;;;;;;18.44;56.47;101106.13;4990949;28;20199;-72
2022/11/15 10:19:38;;;;;;;13.27;11.60;;;;;;;18.41;54.84;101102.69;4993846;28;20223;-72
2022/11/15 10:22:16;;;;;;;14.47;10.97;;;;;;;19.42;52.58;101093.00;4991346;28;20198;-73
2022/11/15 10:24:44;;;;;;;12.33;11.07;;;;;;;18.53;53.55;101093.09;4990948;28;20649;-72
2022/11/15 10:27:13;;;;;;;11.83;10.57;;;;;;;16.95;56.58;101100.81;4990831;28;20190;-73
2022/11/15 10:29:44;;;;;;;12.33;10.17;;;;;;;16.32;60.67;101105.16;4990536;28;20329;-70
2022/11/15 10:32:12;;;;;;;15.63;11.70;;;;;;;14.98;66.31;101112.47;5003631;28;20196;-72
2022/11/15 10:34:37;;;;;;;14.10;11.00;;;;;;;15.79;64.95;101112.00;4990439;28;20180;-72
2022/11/15 10:37:03;;;;;;;13.80;11.37;;;;;;;15.11;66.97;101108.25;4990635;28;20627;-71
2022/11/15 10:39:29;;;;;;;14.10;12.50;;;;;;;14.45;67.56;101112.97;4990374;28;20222;-72
2022/11/15 10:41:55;;;;;;;15.20;12.50;;;;;;;13.71;70.56;101117.34;4990466;28;20230;-72
2022/11/15 10:44:29;;;;;;;15.93;13.50;;;;;;;13.30;72.75;101110.00;4988328;28;20195;-72
2022/11/15 10:46:54;;;;;;;14.20;11.83;;;;;;;13.22;73.40;101103.88;4987799;28;20206;-74
2022/11/15 10:49:22;;;;;;;15.60;13.40;;;;;;;13.02;75.16;101106.19;4990311;28;20219;-71
2022/11/15 10:51:57;;;;;;;15.30;13.00;;;;;;;12.81;75.85;101096.44;4996289;28;20210;-71
2022/11/15 10:54:45;;;;;;;16.97;13.53;;;;;;;12.85;76.94;101095.66;4987634;28;20218;-74
2022/11/15 10:57:15;;;;;;;14.27;11.97;;;;;;;12.72;77.09;101091.16;4990402;28;20653;-73
2022/11/15 10:59:46;;;;;;;17.07;13.50;;;;;;;12.59;78.70;101089.25;4989164;28;20238;-72
2022/11/15 11:02:28;;;;;;;18.13;13.17;;;;;;;12.60;78.64;101091.00;4988719;28;20211;-73
2022/11/15 11:04:54;;;;;;;15.43;12.30;;;;;;;12.61;79.47;101079.00;4986971;28;20212;-71
2022/11/15 11:07:23;;;;;;;15.10;13.07;;;;;;;12.42;79.97;101079.56;4984725;28;20175;-72
2022/11/15 11:10:19;;;;;;;15.30;12.93;;;;;;;12.29;80.79;101075.06;4989112;28;20220;-72
2022/11/15 11:12:44;;;;;;;14.33;12.40;;;;;;;12.19;81.89;101071.50;4988685;28;20270;-71
2022/11/15 11:15:13;;;;;;;17.23;12.97;;;;;;;12.22;81.84;101075.84;4990026;28;20656;-71
2022/11/15 11:18:06;;;;;;;13.60;11.73;;;;;;;12.30;82.45;101064.84;4988007;28;20199;-71
2022/11/15 11:20:53;;;;;;;14.33;11.37;;;;;;;12.28;82.31;101063.97;4999894;28;20692;-73
2022/11/15 11:23:26;;;;;;;14.13;11.13;;;;;;;12.26;82.34;101063.06;4984537;28;20691;-72
2022/11/15 11:26:28;;;;;;;14.67;11.73;;;;;;;12.25;82.73;101056.19;4983855;28;20188;-72
2022/11/15 11:29:29;;;;;;;15.03;11.60;;;;;;;12.23;83.11;101057.88;4982192;28;20191;-73
2022/11/15 11:32:07;;;;;;;15.77;11.50;;;;;;;12.19;83.09;101063.81;4991815;28;20208;-73
2022/11/15 11:35:09;;;;;;;14.73;12.03;;;;;;;12.12;84.06;101067.09;4985356;28;20202;-72
2022/11/15 11:37:46;;;;;;;17.53;12.67;;;;;;;11.94;84.01;101056.53;4984819;28;20184;-72
2022/11/15 11:40:30;;;;;;;15.63;12.77;;;;;;;11.99;84.04;101062.59;4986503;28;20204;-71
2022/11/15 11:43:11;;;;;;;14.70;11.53;;;;;;;12.03;84.41;101059.25;4987011;28;20196;-71
2022/11/15 11:45:36;;;;;;;16.23;12.10;;;;;;;11.97;84.58;101050.56;4988307;28;20246;-72
2022/11/15 11:48:02;;;;;;;14.77;11.70;;;;;;;12.03;84.57;101051.53;4986972;28;20207;-71
2022/11/15 11:50:28;;;;;;;14.30;11.43;;;;;;;12.05;84.46;101049.00;4993748;28;20706;-72
2022/11/15 11:53:03;;;;;;;16.67;12.20;;;;;;;12.08;85.07;101043.94;4993159;28;20257;-73
2022/11/15 11:55:40;;;;;;;17.73;12.50;;;;;;;12.19;84.71;101042.41;4992328;28;20206;-72
2022/11/15 11:58:21;;;;;;;14.07;11.37;;;;;;;12.25;84.79;101035.66;4990237;28;20674;-72
2022/11/15 12:00:52;;;;;;;15.43;11.57;;;;;;;12.35;84.07;101036.66;4988491;28;20729;-72
2022/11/15 12:03:32;;;;;;;14.23;11.00;;;;;;;12.45;84.68;101026.53;4989095;28;20601;-72
2022/11/15 12:06:04;;;;;;;15.07;11.73;;;;;;;12.48;84.39;101036.88;4989865;28;20208;-72
2022/11/15 12:08:56;;;;;;;13.23;10.93;;;;;;;12.46;84.22;101032.53;4993116;28;20214;-72
2022/11/15 12:11:42;;;;;;;15.17;11.57;;;;;;;12.45;84.68;101023.13;4993342;28;20282;-72
2022/11/15 12:14:36;;;;;;;16.57;11.50;;;;;;;12.52;84.25;101020.66;4992746;28;20241;-71
2022/11/15 12:17:01;;;;;;;16.80;11.60;;;;;;;12.62;84.56;101026.78;4991579;28;20188;-71
2022/11/15 12:19:29;;;;;;;14.13;11.13;;;;;;;12.76;83.85;101013.28;5005655;28;20223;-72
2022/11/15 12:22:02;;;;;;;13.30;11.70;;;;;;;12.94;82.63;101008.38;4988441;28;20552;-71
2022/11/15 12:24:43;;;;;;;13.30;11.33;;;;;;;13.31;81.92;101001.13;4993002;28;20192;-72
2022/11/15 12:27:54;;;;;;;12.90;10.30;;;;;;;13.56;80.66;100996.25;4992920;28;20205;-71
2022/11/15 12:30:22;;;;;;;13.70;10.57;;;;;;;13.64;79.72;100991.16;4993526;28;20223;-72
2022/11/15 12:32:50;;;;;;;12.13;10.57;;;;;;;13.80;79.65;100985.28;4992886;28;20283;-71